WEATHER DATA

YESTERDAY
Time Temp. Dewp. Hum. Bar. 1h Prec. 24h Prec.
00:16 3.3 -2.7 63 1011.2 0.1010 0.1000
00:26 3.4 -2.6 63 1011.3 0.1010 0.1000
00:37 3.4 -2.3 65 1011.4 0.1010 0.1000
00:47 3.5 -2.2 65 1011.2 0.2020 0.2000
00:57 3.5 -1.8 67 1011.1 0.2020 0.2000
01:07 3.4 -1.2 71 1011.2 0.2020 0.3000
01:17 3.2 -1 73 1011 0.2020 0.3000
01:27 3.1 -0.8 75 1010.7 0.3030 0.4000
01:37 3.1 -0.5 77 1010.8 0.5050 0.6000
01:47 3 -0.4 78 1010.1 0.4040 0.6000
01:58 3 -0.2 79 1009.9 0.5050 0.7000
02:08 2.9 -0.2 80 1010 0.5050 0.8000
02:18 3 0.1 81 1009.9 0.5050 0.8000
02:28 3 0.1 81 1009.8 0.3030 0.8000
02:38 3.1 0.2 81 1009.3 0.2020 0.8000
02:48 3.2 0.4 82 1009.2 0.2020 0.8000
02:58 3.3 0.2 80 1009 0.1010 0.8000
03:09 3.3 0.2 80 1008.8 0.0000 0.8000
03:19 3.4 0.1 79 1008.9 0.1010 0.9000
03:28 3.5 0.2 79 1008.8 0.1010 0.9000
03:39 3.4 0.3 80 1008.8 0.1010 0.9000
03:49 3.3 0.2 80 1008.6 0.3030 1.1000
03:59 3.2 0.4 82 1008.7 0.3030 1.1000
04:09 3.1 0.3 82 1008.3 0.5050 1.3000
04:20 3.1 0.5 83 1008.4 0.5050 1.4000
04:30 3 0.4 83 1008.4 0.7070 1.6000
04:39 3 0.4 83 1008.3 0.7070 1.6000
04:49 3 0.6 84 1008 0.5050 1.6000
05:00 3 0.6 84 1008.1 0.5050 1.6000
05:10 3 0.6 84 1007.9 0.3030 1.6000
05:20 3 0.7 85 1007.9 0.2020 1.6000
05:30 3 0.6 84 1007.8 0.0000 1.6000
05:41 3.1 0.8 85 1007.6 0.0000 1.6000
05:50 3.1 0.7 84 1007.5 0.0000 1.6000
06:00 3.1 0.7 84 1007.3 0.0000 1.6000
06:11 3.1 0.8 85 1007.3 0.2020 1.8000
06:21 3 0.7 85 1007.4 0.5050 2.1000
06:31 2.8 0.4 84 1007.3 0.9090 2.5000
06:41 2.6 0.3 85 1007.3 1.2120 2.8000
06:51 2.5 0.2 85 1007 1.4140 3.0000
07:01 2.4 0.1 85 1006.9 1.4140 3.0000
07:11 2.4 0.1 85 1006.9 1.2120 3.0000
07:22 2.4 0.1 85 1006.7 1.1110 3.2000
07:32 2.5 0.4 86 1006.6 0.7070 3.2000
07:42 2.7 0.6 86 1006.8 0.5050 3.3000
07:51 2.8 0.9 87 1006.8 0.4040 3.4000
08:02 3 1.1 87 1006.8 0.4040 3.4000
08:12 3.1 1.1 87 1006.7 0.2020 3.4000
08:22 3.2 1.2 87 1006.6 0.2020 3.4000
08:32 3.3 1.2 86 1006.6 0.2020 3.5000
08:43 3.5 1.4 86 1006.5 0.1010 3.5000
08:53 3.5 1.4 86 1006.5 0.1010 3.5000
09:02 3.6 1.5 86 1006.3 0.1010 3.5000
09:13 3.7 1.6 86 1006.1 0.1010 3.5000
09:23 3.7 1.4 85 1006.2 0.0000 3.5000
09:33 3.7 1.3 84 1006.2 0.1010 3.6000
09:43 3.6 1.2 84 1005.9 0.1010 3.6000
09:54 3.6 1.2 84 1006 0.1010 3.6000
10:04 3.6 1.2 84 1006 0.3030 3.8000
10:13 3.5 1.1 84 1006 0.5050 4.0000
10:24 3.4 1 84 1005.9 1.0100 4.5000
10:34 3.2 0.9 85 1006 1.2120 4.8000
10:44 3 0.7 85 1006 1.4140 5.1000
10:54 2.9 0.6 85 1005.8 1.7170 5.5000
11:05 2.8 0.5 85 1005.7 1.7170 5.6000
11:15 3 0.9 86 1005.5 1.3130 5.6000
11:24 3.1 1 86 1005.3 0.8080 5.6000
11:35 3.3 1.3 87 1005.4 0.6060 5.6000
11:45 3.3 1.2 86 1005.4 1.0100 6.3000
11:55 3.3 1.2 86 1005.2 0.9090 6.4000
12:05 3.4 1.3 86 1005.1 0.8080 6.4000
12:16 3.6 1.5 86 1005 1.0100 6.6000
12:26 3.6 1.5 86 1005 1.3130 6.9000
12:35 3.5 1.4 86 1004.9 1.1110 6.9000
12:45 3.4 1.3 86 1004.9 0.9090 7.2000
12:56 3.2 0.9 85 1004.6 1.1110 7.5000
13:06 3 0.7 85 1004.5 1.5150 8.0000
13:16 2.9 0.6 85 1004.2 1.5150 8.2000
13:26 2.9 0.6 85 1004 1.3130 8.2000
13:37 2.9 0.8 86 1003.9 1.1110 8.2000
13:46 3 0.9 86 1003.8 0.8080 8.2000
13:56 3.2 1.1 86 1003.5 0.6060 8.3000
14:07 3.3 1.2 86 1003.5 0.2020 8.3000
14:17 3.5 1.4 86 1003.4 0.2020 8.4000
14:27 3.6 1.5 86 1003.3 0.2020 8.4000
14:37 3.8 1.7 86 1003.4 0.3030 8.5000
14:47 3.9 1.8 86 1003.2 0.3030 8.6000
14:57 3.9 1.8 86 1003 0.3030 8.6000
15:07 4 1.9 86 1002.9 0.2020 8.6000
15:18 4.1 2 86 1002.9 0.2020 8.6000
15:28 4.2 1.9 85 1002.7 0.2020 8.6000
15:37 4.3 2 85 1002.5 0.0000 8.6000
15:47 4.4 2.1 85 1002.5 0.0000 8.6000
15:58 4.5 2.2 85 1002.4 0.0000 8.6000
16:08 4.6 2.3 85 1002.4 0.0000 8.6000
16:18 4.7 2.4 85 1002.1 0.0000 8.6000
16:28 4.8 2.5 85 1001.9 0.0000 8.6000
16:38 4.8 2.5 85 1001.7 0.0000 8.6000
16:48 4.9 2.4 84 1001.6 0.0000 8.6000
16:58 4.8 2.3 84 1001.5 0.0000 8.6000
17:08 4.7 2.2 84 1001.6 0.0000 8.6000
17:18 4.7 2.2 84 1001.5 0.0000 8.6000
17:28 4.7 2.2 84 1001.5 0.0000 8.6000
17:39 4.6 2.1 84 1001.5 0.0000 8.6000
17:49 4.5 2 84 1001.7 0.0000 8.6000
17:58 4.5 2 84 1001.8 0.0000 8.6000
18:08 4.4 1.9 84 1001.8 0.0000 8.6000
18:19 4.4 2.1 85 1001.8 0.0000 8.6000
18:29 4.4 2.1 85 1001.8 0.0000 8.6000
18:39 4.3 1.8 84 1002 0.0000 8.6000
18:49 4.2 1.9 85 1002 0.0000 8.6000
18:59 4.1 1.8 85 1001.9 0.0000 8.6000
19:09 3.9 1.6 85 1001.9 0.0000 8.6000
19:19 3.6 1.3 85 1002.1 0.0000 8.6000
19:30 3.4 1.1 85 1002.2 0.0000 8.6000
19:40 3.3 1 85 1002.4 0.0000 8.6000
19:49 3.2 1.1 86 1002.2 0.0000 8.6000
19:59 3.1 1 86 1002.4 0.0000 8.6000
20:10 3.1 1 86 1002.5 0.0000 8.6000
20:20 3 1.1 87 1002.8 0.0000 8.6000
20:30 3.1 1.1 87 1002.8 0.0000 8.6000
20:40 3.1 1.1 87 1003 0.1010 8.7000
20:50 3.1 1.1 87 1002.9 0.2020 8.8000
21:00 3.2 1.2 87 1003.2 0.2020 8.8000
21:10 3.2 1.2 87 1003.4 0.3030 8.9000
21:21 3.1 1.1 87 1003.5 0.4040 9.0000
21:30 3.1 1.1 87 1003.8 0.5050 9.1000
21:40 3.1 1.1 87 1003.9 0.7070 9.4000
21:51 3.1 1.1 87 1004.1 0.9090 9.7000
22:01 3 0.9 86 1004.2 1.6160 10.4000
22:11 2.8 0.7 86 1004.3 2.1210 11.0000
22:20 2.8 0.7 86 1004.8 2.4240 11.4000
22:31 2.7 0.6 86 1005 2.3230 11.4000
22:41 2.6 0.5 86 1005.2 2.1210 11.5000
22:51 2.5 0.4 86 1005.5 1.8180 11.5000
23:01 2.4 0.3 86 1005.7 1.2120 11.6000
23:11 2.3 0.2 86 1005.9 0.7070 11.7000
23:21 2.2 0.1 86 1006.1 0.4040 11.8000
23:31 2.1 0 86 1006.5 0.4040 11.8000
23:42 2 -0.1 86 1006.7 0.3030 11.8000
23:52 1.9 -0.2 86 1007 0.2020 11.8000

DAY STATISTIC

2019-03-24
TEMPERATURE
AVERAGE
3.3
HIGH
4.9
16:48
LOW
1.9
23:52
PRESSURE
AVERAGE
1005.6
HIGH
1011.4
00:37
LOW
1001.5
16:58
DEWPOINT
AVERAGE
0.9
HIGH
2.5
16:28
LOW
-2.7
00:16
HUMIDITY
AVERAGE
84
HIGH
87
07:51
LOW
63
00:16
PRECIPITATION
RAIN HOUR
2.4
RAIN DAY
11.8
TEMPERATURE (°C)
LOW
1.9
HIGH
4.9
AVERAGE
3.3
PRESSURE (hpa)
LOW
1001.5
HIGH
1011.4
AVERAGE
1005.6
DEVICE